Terminal Aerodrome Forecast
Issued by NWS

Home | Current Version | Previous Version | Text Only | Print | Product List | Glossary On
Versions: 1 2 3 4 5 6 7 8 9 10 11 12 13 14 15 16
000
FTUS45 KGJT 271120
TAFEGE
TAF
KEGE 271120Z 2712/2812 12003KT P6SM VCSH SCT150
     FM271900 24008G15KT P6SM VCTS BKN070CB OVC150
     FM280300 09006KT P6SM VCSH BKN150
     FM280600 00000KT P6SM SCT150
      AMD LTD TO CLD VIS AND WIND TIL 271400=

USA.gov is the U.S. government's official web portal to all federal, state and local government web resources and services.